createdAt,value
2019-02-25T00:01:35.217Z,103885.02
2019-02-25T00:04:04.624Z,103884.41
2019-02-25T00:06:32.714Z,103884.19
2019-02-25T00:09:00.916Z,103883.82
2019-02-25T00:11:29.308Z,103877.91
2019-02-25T00:13:57.359Z,103872.44
2019-02-25T00:16:25.925Z,103869.89
2019-02-25T00:18:54.016Z,103860.84
2019-02-25T00:21:22.418Z,103858.89
2019-02-25T00:23:50.546Z,103858.52
2019-02-25T00:26:18.771Z,103859.86
2019-02-25T00:28:46.897Z,103845.05
2019-02-25T00:31:14.976Z,103847.61
2019-02-25T00:33:43.074Z,103843.27
2019-02-25T00:36:11.176Z,103844.26
2019-02-25T00:38:39.245Z,103851.36
2019-02-25T00:41:07.543Z,103858.84
2019-02-25T00:43:36.019Z,103859.87
2019-02-25T00:46:04.998Z,103861.59
2019-02-25T00:48:33.487Z,103858.84
2019-02-25T00:51:01.720Z,103856.00
2019-02-25T00:53:29.848Z,103852.53
2019-02-25T00:55:58.110Z,103855.40
2019-02-25T00:58:26.208Z,103852.33
2019-02-25T01:00:54.249Z,103854.34
2019-02-25T01:03:22.401Z,103857.17
2019-02-25T01:05:50.747Z,103855.69
2019-02-25T01:08:18.876Z,103863.48
2019-02-25T01:10:47.263Z,103861.96
2019-02-25T01:13:15.381Z,103863.77
2019-02-25T01:15:43.448Z,103857.92
2019-02-25T01:18:11.642Z,103862.88
2019-02-25T01:20:42.035Z,103860.61
2019-02-25T01:23:10.212Z,103865.19
2019-02-25T01:25:38.348Z,103863.00
2019-02-25T01:28:06.972Z,103857.52
2019-02-25T01:30:36.426Z,103851.95
2019-02-25T01:33:05.044Z,103850.15
2019-02-25T01:35:34.200Z,103835.46
2019-02-25T01:38:04.195Z,103833.42
2019-02-25T01:40:33.594Z,103828.59
2019-02-25T01:43:01.833Z,103829.81
2019-02-25T01:45:30.294Z,103833.36
2019-02-25T01:47:58.659Z,103840.76
2019-02-25T01:50:26.763Z,103840.34
2019-02-25T01:52:54.890Z,103851.91
2019-02-25T01:55:23.007Z,103856.23
2019-02-25T01:57:51.321Z,103860.14
2019-02-25T02:00:19.443Z,103862.89
2019-02-25T02:02:48.005Z,103869.55
2019-02-25T02:05:17.121Z,103870.77
2019-02-25T02:07:45.575Z,103876.26
2019-02-25T02:10:14.308Z,103876.12
2019-02-25T02:12:43.205Z,103874.02
2019-02-25T02:15:13.537Z,103880.49
2019-02-25T02:17:42.107Z,103872.25
2019-02-25T02:20:13.469Z,103865.12
2019-02-25T02:22:41.508Z,103866.50
2019-02-25T02:25:10.109Z,103872.71
2019-02-25T02:27:38.191Z,103876.49
2019-02-25T02:30:10.515Z,103867.87
2019-02-25T02:32:38.958Z,103869.53
2019-02-25T02:35:07.765Z,103866.50
2019-02-25T02:37:37.151Z,103865.92
2019-02-25T02:40:06.824Z,103867.33
2019-02-25T02:42:34.929Z,103852.22
2019-02-25T02:45:33.461Z,103849.75
2019-02-25T02:48:33.119Z,103843.38
2019-02-25T02:51:01.646Z,103834.80
2019-02-25T02:53:30.174Z,103831.48
2019-02-25T02:55:58.529Z,103838.01
2019-02-25T02:58:27.275Z,103842.33
2019-02-25T03:00:56.005Z,103843.84
2019-02-25T03:03:25.190Z,103841.37
2019-02-25T03:05:53.703Z,103831.09
2019-02-25T03:08:21.820Z,103830.71
2019-02-25T03:10:49.914Z,103825.59
2019-02-25T03:13:18.259Z,103833.39
2019-02-25T03:15:46.487Z,103827.89
2019-02-25T03:18:14.566Z,103828.77
2019-02-25T03:20:42.819Z,103825.16
2019-02-25T03:23:10.994Z,103824.16
2019-02-25T03:25:39.700Z,103822.38
2019-02-25T03:28:08.424Z,103823.82
2019-02-25T03:30:36.613Z,103819.50
2019-02-25T03:33:05.538Z,103818.51
2019-02-25T03:35:33.919Z,103810.06
2019-02-25T03:38:02.136Z,103802.13
2019-02-25T03:40:30.202Z,103797.65
2019-02-25T03:42:59.247Z,103801.33
2019-02-25T03:45:27.360Z,103811.58
2019-02-25T03:47:55.504Z,103809.38
2019-02-25T03:50:23.880Z,103814.48
2019-02-25T03:52:52.000Z,103805.94
2019-02-25T03:55:20.881Z,103810.53
2019-02-25T03:57:49.614Z,103811.83
2019-02-25T04:00:20.699Z,103817.41
2019-02-25T04:02:49.165Z,103813.61
2019-02-25T04:05:17.385Z,103805.16
2019-02-25T04:07:45.554Z,103811.73
2019-02-25T04:10:15.179Z,103814.73
2019-02-25T04:12:43.689Z,103824.13
2019-02-25T04:15:16.563Z,103822.40
2019-02-25T04:17:46.451Z,103817.00
2019-02-25T04:20:15.031Z,103827.36
2019-02-25T04:22:43.096Z,103825.97
2019-02-25T04:25:11.375Z,103833.72
2019-02-25T04:27:39.636Z,103831.42
2019-02-25T04:30:11.651Z,103833.17
2019-02-25T04:32:40.692Z,103830.16
2019-02-25T04:35:11.540Z,103831.81
2019-02-25T04:37:40.436Z,103823.17
2019-02-25T04:40:10.606Z,103825.47
2019-02-25T04:42:40.531Z,103824.48
2019-02-25T04:45:13.325Z,103826.98
2019-02-25T04:47:41.511Z,103831.23
2019-02-25T04:50:10.682Z,103842.98
2019-02-25T04:52:38.871Z,103844.23
2019-02-25T04:55:08.240Z,103846.26
2019-02-25T04:57:36.385Z,103840.75
2019-02-25T05:00:09.245Z,103847.97
2019-02-25T05:02:37.379Z,103851.68
2019-02-25T05:05:05.596Z,103852.63
2019-02-25T05:07:33.836Z,103847.18
2019-02-25T05:10:02.234Z,103855.98
2019-02-25T05:12:30.383Z,103858.05
2019-02-25T05:14:58.592Z,103849.59
2019-02-25T05:17:26.700Z,103840.93
2019-02-25T05:19:54.785Z,103844.90
2019-02-25T05:22:23.666Z,103840.88
2019-02-25T05:24:52.761Z,103847.01
2019-02-25T05:27:21.342Z,103840.80
2019-02-25T05:29:49.454Z,103843.55
2019-02-25T05:32:17.871Z,103847.61
2019-02-25T05:34:46.922Z,103847.80
2019-02-25T05:37:15.282Z,103845.57
2019-02-25T05:39:43.559Z,103844.53
2019-02-25T05:42:12.082Z,103838.84
2019-02-25T05:44:40.218Z,103835.87
2019-02-25T05:47:08.553Z,103838.81
2019-02-25T05:49:36.680Z,103846.86
2019-02-25T05:52:04.875Z,103849.97
2019-02-25T05:54:32.967Z,103853.83
2019-02-25T05:57:01.131Z,103851.87
2019-02-25T05:59:30.199Z,103857.86
2019-02-25T06:01:58.607Z,103855.60
2019-02-25T06:04:27.685Z,103855.57
2019-02-25T06:06:57.582Z,103860.32
2019-02-25T06:09:25.642Z,103863.58
2019-02-25T06:11:53.876Z,103861.88
2019-02-25T06:14:21.953Z,103870.08
2019-02-25T06:16:50.385Z,103874.36
2019-02-25T06:19:18.988Z,103872.86
2019-02-25T06:21:47.823Z,103876.57
2019-02-25T06:24:16.887Z,103874.50
2019-02-25T06:26:46.631Z,103876.57
2019-02-25T06:29:15.135Z,103885.03
2019-02-25T06:31:43.239Z,103893.40
2019-02-25T06:34:11.924Z,103888.97
2019-02-25T06:36:40.051Z,103891.47
2019-02-25T06:39:08.753Z,103887.95
2019-02-25T06:41:37.127Z,103896.30
2019-02-25T06:44:05.338Z,103898.47
2019-02-25T06:46:33.665Z,103895.17
2019-02-25T06:49:02.291Z,103894.79
2019-02-25T06:51:30.510Z,103901.08
2019-02-25T06:53:59.224Z,103901.18
2019-02-25T06:56:27.640Z,103903.66
2019-02-25T06:58:56.481Z,103913.42
2019-02-25T07:01:24.662Z,103913.75
2019-02-25T07:04:20.542Z,103918.26
2019-02-25T07:07:02.257Z,103912.89
2019-02-25T07:09:55.711Z,103906.47
2019-02-25T07:12:29.478Z,103908.69
2019-02-25T07:15:09.183Z,103910.98
2019-02-25T07:17:55.990Z,103914.17
2019-02-25T07:20:36.051Z,103926.28
2019-02-25T07:23:33.774Z,103931.16
2019-02-25T07:26:24.827Z,103932.95
2019-02-25T07:29:12.974Z,103945.63
2019-02-25T07:32:09.858Z,103944.49
2019-02-25T07:35:00.710Z,103953.02
2019-02-25T07:37:47.128Z,103952.13
2019-02-25T07:40:37.673Z,103953.19
2019-02-25T07:43:28.140Z,103945.98
2019-02-25T07:46:14.799Z,103951.08
2019-02-25T07:49:02.420Z,103955.47
2019-02-25T07:51:36.250Z,103945.20
2019-02-25T07:54:30.070Z,103951.59
2019-02-25T07:57:13.650Z,103951.17
2019-02-25T08:00:07.370Z,103960.91
2019-02-25T08:02:44.771Z,103970.10
2019-02-25T08:05:42.385Z,103969.58
2019-02-25T08:08:39.882Z,103977.30
2019-02-25T08:11:24.125Z,103977.52
2019-02-25T08:14:18.634Z,103978.86
2019-02-25T08:17:01.195Z,103973.33
2019-02-25T08:19:47.647Z,103974.96
2019-02-25T08:22:28.371Z,103971.05
2019-02-25T08:25:19.286Z,103979.70
2019-02-25T08:28:07.117Z,103979.00
2019-02-25T08:31:01.073Z,103976.16
2019-02-25T08:33:58.459Z,103975.55
2019-02-25T08:37:38.138Z,103978.48
2019-02-25T08:40:44.975Z,103979.34
2019-02-25T08:43:24.176Z,103986.43
2019-02-25T08:46:21.304Z,103997.22
2019-02-25T08:49:17.988Z,104004.25
2019-02-25T08:51:46.163Z,104012.67
2019-02-25T08:54:14.421Z,104005.02
2019-02-25T08:56:42.494Z,104005.08
2019-02-25T08:59:11.245Z,103998.90
2019-02-25T09:01:39.763Z,104004.61
2019-02-25T09:04:07.883Z,104000.77
2019-02-25T09:06:36.471Z,103987.39
2019-02-25T09:09:05.825Z,103994.48
2019-02-25T09:11:34.206Z,103988.45
2019-02-25T09:14:02.295Z,103986.29
2019-02-25T09:16:30.417Z,103988.66
2019-02-25T09:18:58.600Z,103988.32
2019-02-25T09:21:31.772Z,103995.29
2019-02-25T09:23:57.039Z,103995.78
2019-02-25T09:26:25.204Z,103995.14
2019-02-25T09:28:53.425Z,103987.41
2019-02-25T09:31:21.607Z,103988.66
2019-02-25T09:33:49.640Z,103983.63
2019-02-25T09:36:17.885Z,103986.17
2019-02-25T09:38:45.941Z,103986.83
2019-02-25T09:41:14.987Z,103986.94
2019-02-25T09:43:43.130Z,103985.89
2019-02-25T09:46:11.401Z,103981.13
2019-02-25T09:48:39.860Z,103976.14
2019-02-25T09:51:07.957Z,103971.89
2019-02-25T09:53:36.077Z,103969.97
2019-02-25T09:56:05.131Z,103944.20
2019-02-25T09:58:33.233Z,103938.83
2019-02-25T10:01:01.353Z,103935.09
2019-02-25T10:03:29.550Z,103929.94
2019-02-25T10:05:57.708Z,103918.36
2019-02-25T10:08:25.995Z,103911.02
2019-02-25T10:10:54.390Z,103904.24
2019-02-25T10:13:22.836Z,103897.42
2019-02-25T10:15:51.152Z,103895.56
2019-02-25T10:18:19.308Z,103895.66
2019-02-25T10:20:47.403Z,103890.50
2019-02-25T10:23:15.552Z,103887.53
2019-02-25T10:25:44.295Z,103892.42
2019-02-25T10:28:12.428Z,103886.69
2019-02-25T10:30:40.504Z,103895.95
2019-02-25T10:33:08.668Z,103887.52
2019-02-25T10:35:36.785Z,103886.37
2019-02-25T10:38:05.119Z,103886.08
2019-02-25T10:40:33.640Z,103886.07
2019-02-25T10:43:01.838Z,103877.88
2019-02-25T10:45:30.783Z,103882.76
2019-02-25T10:47:58.995Z,103882.45
2019-02-25T10:50:28.830Z,103884.36
2019-02-25T10:53:03.433Z,103879.96
2019-02-25T10:55:32.911Z,103875.48
2019-02-25T10:58:02.097Z,103875.33
2019-02-25T11:00:31.349Z,103874.87
2019-02-25T11:02:59.446Z,103871.19
2019-02-25T11:05:30.333Z,103876.16
2019-02-25T11:07:58.543Z,103878.36
2019-02-25T11:10:31.248Z,103874.98
2019-02-25T11:13:01.994Z,103872.36
2019-02-25T11:15:32.091Z,103870.30
2019-02-25T11:18:00.195Z,103876.84
2019-02-25T11:20:29.333Z,103882.53
2019-02-25T11:22:58.457Z,103877.17
2019-02-25T11:25:28.454Z,103866.01
2019-02-25T11:27:56.597Z,103866.77
2019-02-25T11:30:24.782Z,103870.13
2019-02-25T11:32:55.427Z,103873.53
2019-02-25T11:35:23.167Z,103876.05
2019-02-25T11:37:51.940Z,103880.91
2019-02-25T11:40:21.396Z,103881.97
2019-02-25T11:42:50.532Z,103875.67
2019-02-25T11:45:19.249Z,103876.13
2019-02-25T11:47:47.369Z,103879.63
2019-02-25T11:50:15.587Z,103874.59
2019-02-25T11:52:43.700Z,103862.70
2019-02-25T11:55:12.351Z,103853.89
2019-02-25T11:57:40.613Z,103856.26
2019-02-25T12:00:16.089Z,103855.94
2019-02-25T12:02:44.358Z,103859.80
2019-02-25T12:05:14.336Z,103859.52
2019-02-25T12:07:49.519Z,103853.25
2019-02-25T12:10:17.720Z,103844.38
2019-02-25T12:12:46.065Z,103843.66
2019-02-25T12:15:14.764Z,103847.32
2019-02-25T12:17:43.005Z,103842.89
2019-02-25T12:20:11.910Z,103835.77
2019-02-25T12:22:39.999Z,103838.44
2019-02-25T12:25:09.659Z,103833.26
2019-02-25T12:27:37.727Z,103832.98
2019-02-25T12:30:11.170Z,103823.30
2019-02-25T12:32:39.284Z,103829.52
2019-02-25T12:35:08.057Z,103825.08
2019-02-25T12:37:36.155Z,103820.16
2019-02-25T12:40:04.982Z,103826.98
2019-02-25T12:42:33.108Z,103824.89
2019-02-25T12:45:01.242Z,103829.94
2019-02-25T12:47:29.316Z,103831.16
2019-02-25T12:49:58.239Z,103840.48
2019-02-25T12:52:26.341Z,103837.76
2019-02-25T12:54:54.473Z,103828.88
2019-02-25T12:57:22.532Z,103840.33
2019-02-25T12:59:50.626Z,103839.11
2019-02-25T13:02:18.997Z,103835.69
2019-02-25T13:04:47.133Z,103833.09
2019-02-25T13:07:15.361Z,103829.77
2019-02-25T13:09:43.451Z,103826.55
2019-02-25T13:12:11.554Z,103817.56
2019-02-25T13:14:39.651Z,103831.80
2019-02-25T13:17:07.783Z,103829.77
2019-02-25T13:19:35.908Z,103825.00
2019-02-25T13:22:04.206Z,103824.08
2019-02-25T13:24:32.748Z,103817.72
2019-02-25T13:27:03.170Z,103816.11
2019-02-25T13:29:31.995Z,103804.11
2019-02-25T13:32:00.196Z,103798.42
2019-02-25T13:34:28.270Z,103796.89
2019-02-25T13:36:57.099Z,103794.55
2019-02-25T13:39:25.479Z,103801.77
2019-02-25T13:41:53.729Z,103800.80
2019-02-25T13:44:21.974Z,103796.17
2019-02-25T13:46:50.170Z,103790.76
2019-02-25T13:49:18.951Z,103790.52
2019-02-25T13:51:47.057Z,103792.37
2019-02-25T13:54:15.283Z,103789.38
2019-02-25T13:56:43.564Z,103793.15
2019-02-25T13:59:12.194Z,103786.38
2019-02-25T14:01:40.378Z,103785.72
2019-02-25T14:04:08.632Z,103788.23
2019-02-25T14:06:36.804Z,103781.03
2019-02-25T14:09:08.056Z,103787.42
2019-02-25T14:11:36.419Z,103790.89
2019-02-25T14:14:04.619Z,103785.95
2019-02-25T14:16:32.807Z,103783.77
2019-02-25T14:19:01.027Z,103784.30
2019-02-25T14:21:29.180Z,103779.37
2019-02-25T14:23:57.659Z,103781.23
2019-02-25T14:26:27.657Z,103781.69
2019-02-25T14:28:55.753Z,103781.69
2019-02-25T14:31:24.082Z,103780.52
2019-02-25T14:33:52.479Z,103775.09
2019-02-25T14:36:20.955Z,103772.88
2019-02-25T14:38:49.451Z,103768.03
2019-02-25T14:41:18.531Z,103769.45
2019-02-25T14:43:49.613Z,103771.28
2019-02-25T14:46:21.834Z,103768.28
2019-02-25T14:48:47.763Z,103765.02
2019-02-25T14:51:16.084Z,103752.84
2019-02-25T14:53:45.190Z,103749.20
2019-02-25T14:56:14.359Z,103751.86
2019-02-25T14:58:43.137Z,103750.94
2019-02-25T15:01:12.789Z,103748.05
2019-02-25T15:03:40.865Z,103741.40
2019-02-25T15:06:10.163Z,103730.98
2019-02-25T15:08:38.264Z,103730.83
2019-02-25T15:11:08.682Z,103728.59
2019-02-25T15:13:37.600Z,103718.54
2019-02-25T15:16:06.786Z,103721.37
2019-02-25T15:18:35.170Z,103724.34
2019-02-25T15:21:06.878Z,103723.33
2019-02-25T15:23:36.371Z,103720.69
2019-02-25T15:26:05.549Z,103711.43
2019-02-25T15:28:34.711Z,103711.22
2019-02-25T15:31:04.419Z,103709.30
2019-02-25T15:33:33.626Z,103714.92
2019-02-25T15:36:03.335Z,103711.17
2019-02-25T15:38:33.146Z,103717.25
2019-02-25T15:41:02.152Z,103715.05
2019-02-25T15:43:31.862Z,103700.26
2019-02-25T15:46:00.345Z,103707.41
2019-02-25T15:48:29.031Z,103710.29
2019-02-25T15:51:00.636Z,103709.81
2019-02-25T15:53:28.724Z,103712.55
2019-02-25T15:55:59.308Z,103717.06
2019-02-25T15:58:27.204Z,103705.52
2019-02-25T16:00:55.655Z,103706.11
2019-02-25T16:03:24.484Z,103705.50
2019-02-25T16:05:57.203Z,103709.56
2019-02-25T16:08:23.837Z,103713.20
2019-02-25T16:10:55.598Z,103720.16
2019-02-25T16:13:24.050Z,103713.89
2019-02-25T16:15:52.166Z,103707.02
2019-02-25T16:18:20.463Z,103714.47
2019-02-25T16:20:48.662Z,103723.19
2019-02-25T16:23:16.773Z,103723.27
2019-02-25T16:25:46.165Z,103718.02
2019-02-25T16:28:17.318Z,103719.70
2019-02-25T16:30:46.839Z,103711.00
2019-02-25T16:33:15.785Z,103710.87
2019-02-25T16:35:45.641Z,103717.17
2019-02-25T16:38:14.307Z,103715.38
2019-02-25T16:40:42.484Z,103714.22
2019-02-25T16:43:12.700Z,103704.89
2019-02-25T16:45:42.565Z,103702.38
2019-02-25T16:48:10.966Z,103707.00
2019-02-25T16:50:41.608Z,103702.99
2019-02-25T16:53:12.726Z,103700.26
2019-02-25T16:55:42.163Z,103704.47
2019-02-25T16:58:13.060Z,103707.31
2019-02-25T17:00:41.896Z,103713.41
2019-02-25T17:03:11.145Z,103716.98
2019-02-25T17:05:42.104Z,103717.88
2019-02-25T17:08:14.323Z,103713.27
2019-02-25T17:10:42.695Z,103711.48
2019-02-25T17:13:14.315Z,103714.81
2019-02-25T17:15:41.649Z,103716.24
2019-02-25T17:18:15.131Z,103719.31
2019-02-25T17:20:42.190Z,103728.89
2019-02-25T17:23:10.306Z,103727.01
2019-02-25T17:25:40.784Z,103721.84
2019-02-25T17:28:14.371Z,103722.42
2019-02-25T17:30:40.686Z,103720.80
2019-02-25T17:33:10.532Z,103710.75
2019-02-25T17:35:39.654Z,103713.20
2019-02-25T17:38:08.067Z,103716.47
2019-02-25T17:40:36.214Z,103714.30
2019-02-25T17:43:04.815Z,103721.36
2019-02-25T17:45:34.435Z,103717.29
2019-02-25T17:48:08.057Z,103723.28
2019-02-25T17:50:35.329Z,103718.10
2019-02-25T17:53:05.119Z,103715.37
2019-02-25T17:55:36.279Z,103715.61
2019-02-25T17:58:05.708Z,103714.22
2019-02-25T18:00:39.588Z,103714.77
2019-02-25T18:03:10.933Z,103708.47
2019-02-25T18:05:40.760Z,103709.27
2019-02-25T18:08:14.542Z,103699.70
2019-02-25T18:10:40.732Z,103699.13
2019-02-25T18:13:10.935Z,103693.66
2019-02-25T18:15:39.200Z,103695.28
2019-02-25T18:18:09.271Z,103694.71
2019-02-25T18:20:38.973Z,103685.45
2019-02-25T18:23:07.288Z,103677.27
2019-02-25T18:25:37.689Z,103679.13
2019-02-25T18:28:06.309Z,103675.57
2019-02-25T18:30:36.523Z,103667.41
2019-02-25T18:33:05.447Z,103669.30
2019-02-25T18:35:36.356Z,103676.87
2019-02-25T18:38:05.364Z,103674.39
2019-02-25T18:40:35.891Z,103676.28
2019-02-25T18:43:06.550Z,103681.13
2019-02-25T18:45:36.150Z,103680.30
2019-02-25T18:48:06.751Z,103689.03
2019-02-25T18:50:35.432Z,103690.98
2019-02-25T18:53:04.063Z,103691.75
2019-02-25T18:55:34.221Z,103694.41
2019-02-25T18:58:05.107Z,103702.27
2019-02-25T19:00:36.353Z,103705.48
2019-02-25T19:03:05.641Z,103708.92
2019-02-25T19:05:34.239Z,103711.34
2019-02-25T19:08:14.436Z,103711.28
2019-02-25T19:10:43.419Z,103703.34
2019-02-25T19:13:10.964Z,103701.08
2019-02-25T19:15:39.482Z,103697.73
2019-02-25T19:18:09.435Z,103703.11
2019-02-25T19:20:38.871Z,103700.40
2019-02-25T19:23:10.190Z,103704.66
2019-02-25T19:25:38.248Z,103700.02
2019-02-25T19:28:07.167Z,103701.07
2019-02-25T19:30:35.488Z,103698.32
2019-02-25T19:33:10.994Z,103703.88
2019-02-25T19:35:36.031Z,103706.73
2019-02-25T19:38:05.839Z,103712.89
2019-02-25T19:40:38.261Z,103716.62
2019-02-25T19:43:06.067Z,103714.87
2019-02-25T19:45:36.252Z,103717.80
2019-02-25T19:48:05.355Z,103708.25
2019-02-25T19:50:35.281Z,103714.09
2019-02-25T19:53:07.001Z,103721.08
2019-02-25T19:55:36.265Z,103717.80
2019-02-25T19:58:05.041Z,103725.34
2019-02-25T20:00:35.349Z,103725.02
2019-02-25T20:03:06.147Z,103727.34
2019-02-25T20:05:33.435Z,103732.91
2019-02-25T20:08:01.677Z,103737.95
2019-02-25T20:10:30.768Z,103743.61
2019-02-25T20:12:59.703Z,103744.25
2019-02-25T20:15:27.809Z,103739.98
2019-02-25T20:17:55.902Z,103746.77
2019-02-25T20:20:27.308Z,103746.39
2019-02-25T20:22:57.336Z,103745.75
2019-02-25T20:25:26.564Z,103740.73
2019-02-25T20:27:57.407Z,103733.52
2019-02-25T20:30:27.734Z,103735.88
2019-02-25T20:32:56.030Z,103729.81
2019-02-25T20:35:25.110Z,103727.33
2019-02-25T20:37:55.679Z,103723.77
2019-02-25T20:40:26.713Z,103727.23
2019-02-25T20:42:55.974Z,103727.45
2019-02-25T20:45:25.246Z,103718.98
2019-02-25T20:47:55.157Z,103718.66
2019-02-25T20:50:24.401Z,103712.92
2019-02-25T20:52:52.433Z,103708.81
2019-02-25T20:55:20.596Z,103701.78
2019-02-25T20:57:48.842Z,103696.89
2019-02-25T21:00:19.518Z,103680.86
2019-02-25T21:02:47.928Z,103672.95
2019-02-25T21:05:16.842Z,103669.45
2019-02-25T21:07:47.743Z,103667.22
2019-02-25T21:10:16.560Z,103660.45
2019-02-25T21:12:44.638Z,103647.36
2019-02-25T21:15:14.781Z,103651.09
2019-02-25T21:17:42.872Z,103656.77
2019-02-25T21:20:12.314Z,103660.83
2019-02-25T21:22:40.506Z,103664.30
2019-02-25T21:25:08.958Z,103677.42
2019-02-25T21:27:39.059Z,103673.34
2019-02-25T21:30:11.728Z,103669.21
2019-02-25T21:32:40.573Z,103673.63
2019-02-25T21:35:11.195Z,103672.71
2019-02-25T21:37:41.195Z,103676.39
2019-02-25T21:40:16.768Z,103670.86
2019-02-25T21:46:09.718Z,103668.94
2019-02-25T21:48:38.058Z,103667.03
2019-02-25T21:51:07.815Z,103665.50
2019-02-25T21:53:36.191Z,103659.61
2019-02-25T21:56:04.898Z,103652.06
2019-02-25T21:58:33.549Z,103648.56
2019-02-25T22:01:01.695Z,103648.12
2019-02-25T22:03:29.970Z,103644.75
2019-02-25T22:06:00.448Z,103644.02
2019-02-25T22:08:29.183Z,103634.28
2019-02-25T22:10:59.940Z,103637.00
2019-02-25T22:13:28.430Z,103633.47
2019-02-25T22:15:57.390Z,103642.16
2019-02-25T22:18:28.258Z,103642.16
2019-02-25T22:20:56.784Z,103640.05
2019-02-25T22:23:26.121Z,103634.06
2019-02-25T22:25:55.115Z,103642.33
2019-02-25T22:28:23.548Z,103638.88
2019-02-25T22:30:52.301Z,103647.45
2019-02-25T22:33:27.387Z,103639.84
2019-02-25T22:35:51.997Z,103636.56
2019-02-25T22:38:20.151Z,103630.92
2019-02-25T22:40:48.252Z,103624.52
2019-02-25T22:43:16.953Z,103622.52
2019-02-25T22:45:46.376Z,103618.12
2019-02-25T22:48:16.323Z,103616.09
2019-02-25T22:50:44.685Z,103618.86
2019-02-25T22:53:12.819Z,103615.01
2019-02-25T22:55:42.620Z,103616.50
2019-02-25T22:58:12.651Z,103599.45
2019-02-25T23:00:46.103Z,103599.45
2019-02-25T23:03:17.692Z,103598.69
2019-02-25T23:05:48.676Z,103601.98
2019-02-25T23:08:20.857Z,103603.02
2019-02-25T23:10:49.378Z,103601.54
2019-02-25T23:13:19.971Z,103606.34
2019-02-25T23:15:49.440Z,103610.16
2019-02-25T23:18:21.544Z,103620.52
2019-02-25T23:20:50.336Z,103621.83
2019-02-25T23:23:21.291Z,103626.53
2019-02-25T23:25:51.419Z,103629.50
2019-02-25T23:28:22.917Z,103628.99
2019-02-25T23:30:53.261Z,103635.11
2019-02-25T23:33:22.801Z,103640.58
2019-02-25T23:35:54.106Z,103646.32
2019-02-25T23:38:22.437Z,103648.08
2019-02-25T23:40:50.576Z,103642.97
2019-02-25T23:43:19.006Z,103646.42
2019-02-25T23:45:47.270Z,103651.37
2019-02-25T23:48:15.406Z,103649.81
2019-02-25T23:50:43.926Z,103651.06
2019-02-25T23:53:11.955Z,103637.30
2019-02-25T23:55:43.154Z,103632.35
2019-02-25T23:58:12.289Z,103627.98
